Latest Weather Observations for Moss Vale

IDN60801

Issued at 3:32 pm EST Monday 26 September 2022 (issued every 10 minutes, with the page automatically refreshed every 10 minutes)

About weather observations | Map of weather stations | Latest weather observations for NSW | Other Formats
Station Details ID: 068239 Name: MOSS VALE AWS Lat: -34.53 Lon: 150.42 Height: 678.4 m
Data from the previous 72 hours. | See also: Recent months at Moss Vale
Date/Time
EST
Temp
°C
App
Temp
°C
Dew
Point
°C
Rel
Hum
%
Delta-T
°C
Wind Press
QNH
hPa
Press
MSL
hPa
Rain since
9am
mm
Dir  Spd
km/h
Gust
km/h
Spd
kts
Gust
kts
26/03:30pm 15.6 12.8 6.9 56 4.4 NNW 11 17 6 9 1015.0 1014.5 0.0
26/03:00pm 15.2 11.8 7.5 60 4.0 N 15 24 8 13 1015.2 1014.7 0.0
26/02:30pm 15.3 12.4 8.3 63 3.7 NNW 13 26 7 14 1015.5 1015.0 0.0
26/02:00pm 14.5 11.8 7.3 62 3.7 NNW 11 15 6 8 1015.8 1015.3 0.0
26/01:30pm 14.6 12.6 8.5 67 3.2 NNW 9 15 5 8 1016.0 1015.6 0.0
26/01:00pm 14.1 11.4 8.9 71 2.7 NNW 13 20 7 11 1016.6 1016.1 0.0
26/12:30pm 13.4 10.3 8.9 74 2.4 NNW 15 22 8 12 1017.0 1016.5 0.0
26/12:00pm 12.8 8.9 8.5 75 2.2 N 19 24 10 13 1017.2 1016.8 0.0
26/11:30am 12.7 7.7 8.2 74 2.3 N 24 32 13 17 1017.5 1017.1 0.0
26/11:00am 13.3 8.4 8.6 73 2.4 N 24 30 13 16 1017.7 1017.3 0.0
26/10:30am 14.1 10.8 9.7 75 2.3 N 17 24 9 13 1018.0 1017.5 0.0
26/10:00am 12.5 8.3 8.4 76 2.1 N 20 30 11 16 1018.1 1017.6 0.0
26/09:30am 11.5 7.4 7.8 78 1.9 N 19 22 10 12 1018.2 1017.7 0.0
26/09:00am 10.5 9.7 8.1 85 1.2 NE 2 7 1 4 1018.4 1017.9 0.0
26/08:30am 9.3 8.8 7.7 90 0.8 CALM 0 0 0 0 1018.0 1017.5 0.0
26/08:00am 7.8 7.2 7.4 97 0.2 CALM 0 2 0 1 1018.0 1017.5 0.0
26/07:30am 6.9 6.1 6.6 98 0.1 CALM 0 0 0 0 1018.3 1017.8 0.0
26/07:00am 5.1 3.9 4.8 98 0.1 CALM 0 0 0 0 1018.1 1017.6 0.0
26/06:30am 3.4 1.5 3.1 98 0.1 NE 2 6 1 3 1017.6 1017.2 0.0
26/06:00am 2.7 -0.3 2.3 97 0.2 NE 7 9 4 5 1017.4 1017.0 0.0
26/05:59am 2.7 -0.3 2.3 97 0.2 NE 7 9 4 5 1017.3 1016.9 0.0
26/05:47am 2.2 -0.6 1.8 97 0.2 NE 6 9 3 5 1017.2 1016.8 0.0
26/05:30am 3.1 1.5 2.7 97 0.2 CALM 0 0 0 0 1017.2 1016.8 0.0
26/05:08am 2.4 0.3 2.0 97 0.2 NE 2 6 1 3 1017.3 1016.9 0.0
26/05:00am 2.5 -0.3 2.1 97 0.2 NE 6 7 3 4 1017.2 1016.8 0.0
26/04:30am 3.0 0.3 2.6 97 0.2 NE 6 7 3 4 1017.0 1016.5 0.0
26/04:27am 2.9 0.2 2.5 97 0.2 NE 6 7 3 4 1017.0 1016.5 0.0
26/04:24am 3.1 0.4 2.7 97 0.2 NE 6 7 3 4 1017.0 1016.5 0.0
26/04:00am 2.5 -0.3 1.9 96 0.2 NE 6 7 3 4 1016.9 1016.4 0.0
26/03:30am 3.1 1.5 2.5 96 0.2 CALM 0 0 0 0 1017.0 1016.5 0.0
26/03:18am 3.1 1.5 2.5 96 0.2 CALM 0 0 0 0 1017.0 1016.5 0.0
26/03:00am 3.0 1.4 2.4 96 0.2 CALM 0 0 0 0 1017.1 1016.6 0.0
26/02:54am 3.1 1.5 2.5 96 0.2 CALM 0 0 0 0 1017.1 1016.6 0.0
26/02:37am 3.6 2.1 3.0 96 0.3 CALM 0 0 0 0 1017.1 1016.6 0.0
26/02:30am 3.5 2.0 2.9 96 0.3 CALM 0 6 0 3 1017.4 1017.0 0.0
26/02:00am 2.2 -0.9 1.3 94 0.4 NE 7 11 4 6 1017.6 1017.2 0.0
26/01:46am 3.7 2.2 3.0 95 0.3 CALM 0 6 0 3 1017.7 1017.3 0.0
26/01:30am 3.7 2.2 2.8 94 0.4 CALM 0 0 0 0 1017.9 1017.4 0.0
26/01:00am 3.7 1.0 2.8 94 0.4 NE 6 7 3 4 1018.2 1017.7 0.0
26/12:30am 4.4 2.6 3.7 95 0.3 NE 2 6 1 3 1018.4 1017.9 0.0
26/12:00am 4.4 2.2 3.4 93 0.4 NE 4 6 2 3 1018.7 1018.3 0.0
 
Date/Time
EST
Temp
°C
App
Temp
°C
Dew
Point
°C
Rel
Hum
%
Delta-T
°C
Wind Press
QNH
hPa
Press
MSL
hPa
Rain since
9am
mm
Dir  Spd
km/h
Gust
km/h
Spd
kts
Gust
kts
25/11:30pm 4.7 1.9 3.0 89 0.7 WNW 7 9 4 5 1018.1 1017.6 0.0
25/11:00pm 5.3 3.8 3.2 86 0.9 CALM 0 0 0 0 1018.4 1017.9 0.0
25/10:30pm 7.0 4.5 3.8 80 1.4 WNW 6 7 3 4 1018.4 1017.9 0.0
25/10:00pm 6.6 4.0 4.1 84 1.1 WNW 7 9 4 5 1018.7 1018.3 0.0
25/09:30pm 7.4 4.8 4.4 81 1.4 N 7 11 4 6 1018.6 1018.2 0.0
25/09:00pm 7.2 5.9 4.2 81 1.3 CALM 0 0 0 0 1018.4 1017.9 0.0
25/08:30pm 8.8 5.4 3.8 71 2.3 SSW 11 11 6 6 1018.2 1017.7 0.0
25/08:00pm 9.5 6.0 3.7 67 2.6 SW 11 13 6 7 1017.5 1017.1 0.0
25/07:30pm 10.5 8.0 3.8 63 3.1 WSW 6 9 3 5 1017.1 1016.6 0.0
25/07:00pm 11.0 8.3 3.8 61 3.3 WSW 7 11 4 6 1016.6 1016.1 0.0
25/06:30pm 11.0 7.6 3.8 61 3.3 WSW 11 13 6 7 1016.3 1015.8 0.0
25/06:00pm 12.1 8.3 3.9 57 3.8 W 13 19 7 10 1015.8 1015.3 0.0
25/05:30pm 13.6 9.3 3.4 50 4.8 W 15 20 8 11 1015.6 1015.1 0.0
25/05:00pm 14.7 9.9 2.6 44 5.6 W 17 20 9 11 1015.3 1014.8 0.0
25/04:30pm 15.9 10.7 2.3 40 6.3 W 19 28 10 15 1015.2 1014.7 0.0
25/04:00pm 16.7 11.5 3.7 42 6.3 WSW 20 30 11 16 1014.8 1014.3 0.0
25/03:30pm 17.4 12.3 3.3 39 6.8 W 19 24 10 13 1014.6 1014.1 0.0
25/03:00pm 17.7 13.6 4.6 42 6.5 WNW 15 22 8 12 1014.4 1013.9 0.0
25/02:30pm 17.6 13.1 4.2 41 6.6 W 17 26 9 14 1014.6 1014.1 0.0
25/02:00pm 17.5 13.4 2.3 36 7.2 W 13 22 7 12 1014.9 1014.4 0.0
25/01:30pm 17.1 12.7 2.7 38 6.8 W 15 20 8 11 1014.8 1014.3 0.0
25/01:00pm 16.7 12.6 2.0 37 6.8 W 13 20 7 11 1015.2 1014.7 0.0
25/12:30pm 15.9 11.4 2.3 40 6.3 W 15 24 8 13 1015.5 1015.0 0.0
25/12:00pm 15.6 11.7 5.5 51 5.0 W 15 26 8 14 1015.8 1015.3 0.0
25/11:30am 14.8 11.1 6.4 57 4.2 W 15 24 8 13 1016.0 1015.6 0.0
25/11:00am 14.1 10.2 7.2 63 3.5 WSW 17 26 9 14 1016.4 1015.9 0.0
25/10:30am 13.4 9.3 6.0 61 3.6 W 17 24 9 13 1016.8 1016.3 0.0
25/10:00am 12.6 8.5 6.2 65 3.1 WSW 17 24 9 13 1016.8 1016.3 0.0
25/09:30am 12.2 8.1 6.0 66 3.0 W 17 20 9 11 1016.8 1016.3 0.0
25/09:00am 10.8 6.4 4.9 67 2.8 W 17 26 9 14 1016.7 1016.2 3.0
25/08:30am 10.0 5.3 5.0 71 2.3 W 19 24 10 13 1016.6 1016.1 3.0
25/08:00am 9.1 4.8 5.1 76 1.9 W 17 26 9 14 1016.5 1016.0 3.0
25/07:30am 8.1 3.2 4.1 76 1.8 W 19 28 10 15 1016.1 1015.7 3.0
25/07:00am 7.2 1.8 4.5 83 1.2 W 22 32 12 17 1015.6 1015.1 3.0
25/06:30am 6.3 0.8 4.0 85 1.0 W 22 28 12 15 1015.5 1015.0 3.0
25/06:00am 5.4 0.4 3.7 89 0.7 W 19 24 10 13 1015.3 1014.8 3.0
25/05:30am 5.6 1.8 3.8 88 0.8 W 13 19 7 10 1015.1 1014.6 3.0
25/05:00am 5.9 1.0 4.1 88 0.8 W 19 24 10 13 1014.9 1014.4 3.0
25/04:30am 6.2 1.2 4.5 89 0.8 W 20 24 11 13 1014.5 1014.0 3.0
25/04:00am 6.4 1.6 4.6 88 0.8 W 19 24 10 13 1014.5 1014.0 3.0
25/03:30am 6.6 1.3 4.9 89 0.8 W 22 26 12 14 1014.4 1013.9 3.0
25/03:00am 7.0 1.7 5.2 88 0.8 W 22 26 12 14 1014.5 1014.0 3.0
25/02:30am 7.5 2.3 5.6 88 0.9 W 22 30 12 16 1014.6 1014.1 3.0
25/02:00am 7.5 3.3 5.8 89 0.8 W 17 20 9 11 1014.9 1014.4 3.0
25/01:30am 8.3 3.7 6.3 87 1.0 W 20 26 11 14 1015.0 1014.5 3.0
25/01:00am 8.9 5.0 7.0 88 0.9 W 17 22 9 12 1015.1 1014.6 3.0
25/12:30am 9.1 5.3 7.4 89 0.8 W 17 24 9 13 1015.2 1014.7 3.0
25/12:00am 8.9 5.1 7.5 91 0.7 W 17 20 9 11 1015.2 1014.7 3.0
 
Date/Time
EST
Temp
°C
App
Temp
°C
Dew
Point
°C
Rel
Hum
%
Delta-T
°C
Wind Press
QNH
hPa
Press
MSL
hPa
Rain since
9am
mm
Dir  Spd
km/h
Gust
km/h
Spd
kts
Gust
kts
24/11:30pm 8.9 5.1 7.4 90 0.7 W 17 22 9 12 1015.0 1014.5 3.0
24/11:00pm 9.2 5.5 7.8 91 0.7 W 17 22 9 12 1014.9 1014.4 3.0
24/10:30pm 9.0 6.2 8.6 97 0.2 W 13 17 7 9 1015.0 1014.5 3.0
24/10:00pm 8.2 6.8 7.4 95 0.4 NW 4 7 2 4 1014.9 1014.4 3.0
24/09:30pm 8.3 6.4 7.7 96 0.3 W 7 9 4 5 1014.9 1014.4 3.0
24/09:07pm 8.0 5.6 7.2 95 0.4 W 9 11 5 6 1014.9 1014.4 3.0
24/09:00pm 8.0 5.6 7.2 95 0.4 W 9 11 5 6 1014.9 1014.4 3.0
24/08:50pm 7.8 5.3 6.7 93 0.5 WNW 9 11 5 6 1014.8 1014.3 3.0
24/08:30pm 8.7 6.8 7.6 93 0.5 ESE 7 11 4 6 1014.6 1014.1 3.0
24/08:00pm 9.1 7.5 7.9 92 0.6 ESE 6 7 3 4 1014.4 1013.9 3.0
24/07:30pm 9.7 5.2 8.5 92 0.6 SSE 22 33 12 18 1014.4 1013.9 3.0
24/07:00pm 10.1 9.1 8.9 92 0.6 ENE 4 6 2 3 1013.7 1013.2 2.6
24/06:30pm 9.8 9.0 8.2 90 0.8 S 2 7 1 4 1013.2 1012.6 2.6
24/06:00pm 9.9 8.1 7.8 87 1.0 SSW 7 9 4 5 1012.6 1012.1 2.6
24/05:30pm 11.0 7.6 7.7 80 1.7 W 15 26 8 14 1011.9 1011.3 2.6
24/05:00pm 12.1 7.0 7.6 74 2.3 SW 24 32 13 17 1011.8 1011.2 2.4
24/04:30pm 13.2 9.7 8.7 74 2.3 SW 17 22 9 12 1011.1 1010.6 2.4
24/04:00pm 12.0 9.4 9.4 84 1.4 SW 13 20 7 11 1010.9 1010.4 2.4
24/03:39pm 10.4 7.2 8.5 88 1.0 SSW 15 28 8 15 1010.9 1010.4 2.4
24/03:30pm 10.3 6.2 7.7 84 1.3 SSW 19 28 10 15 1010.7 1010.1 2.2
24/03:19pm 10.6 5.3 6.9 78 1.8 WSW 24 50 13 27 1011.1 1010.6 1.6
24/03:18pm 10.8 5.5 6.6 75 2.1 SW 24 50 13 27 1011.0 1010.5 1.2
24/03:16pm 11.7 7.1 6.6 71 2.5 SW 20 50 11 27 1010.9 1010.4 0.8
24/03:00pm 13.7 10.8 9.7 77 2.1 SSW 15 19 8 10 1010.4 1009.8 0.6
24/02:30pm 14.8 12.5 10.6 76 2.3 W 13 17 7 9 1010.2 1009.6 0.6
24/02:00pm 14.6 11.5 10.4 76 2.3 WSW 17 24 9 13 1010.1 1009.5 0.6
24/01:30pm 13.2 11.4 10.7 85 1.4 SSW 11 17 6 9 1010.5 1009.9 0.6
24/01:00pm 12.6 10.0 10.7 88 1.0 WSW 15 24 8 13 1011.0 1010.5 0.6
24/12:30pm 13.4 12.1 11.1 86 1.3 SW 9 15 5 8 1011.0 1010.5 0.6
24/12:12pm 12.7 10.6 11.3 91 0.8 SSE 13 17 7 9 1011.0 1010.5 0.6
24/12:00pm 11.6 9.9 9.7 88 1.0 S 9 13 5 7 1011.3 1010.8 0.6
24/11:54am 11.5 9.2 9.1 85 1.2 S 11 15 6 8 1011.4 1010.9 0.6
24/11:30am 11.8 9.0 10.0 89 1.0 S 15 24 8 13 1011.8 1011.2 0.0
24/11:14am 12.2 9.6 10.8 91 0.8 S 15 20 8 11 1011.9 1011.3 0.0
24/11:00am 12.0 9.4 10.6 91 0.8 SSW 15 17 8 9 1012.1 1011.5 0.0
24/10:51am 11.7 9.4 10.6 93 0.6 S 13 19 7 10 1012.2 1011.7 0.0
24/10:30am 10.7 7.4 9.5 92 0.6 S 17 20 9 11 1012.4 1011.9 0.0
24/10:00am 10.5 7.2 9.4 93 0.6 SSW 17 20 9 11 1012.4 1011.9 0.0
24/09:30am 10.5 7.2 9.7 95 0.4 SSW 17 22 9 12 1012.2 1011.7 0.0
24/09:00am 10.9 7.2 10.0 94 0.5 SSW 20 28 11 15 1012.1 1011.5 2.8
24/08:52am 11.3 7.6 10.0 92 0.7 SW 20 32 11 17 1011.9 1011.3 2.8
24/08:49am 11.5 7.8 10.2 92 0.7 SW 20 30 11 16 1011.9 1011.3 2.8
24/08:30am 12.0 9.1 10.9 93 0.6 W 17 22 9 12 1011.8 1011.2 2.6
24/08:19am 12.2 10.1 11.1 93 0.6 W 13 20 7 11 1011.9 1011.3 2.6
24/08:00am 12.2 9.0 11.4 95 0.4 SSW 19 24 10 13 1011.4 1010.9 2.6
24/07:30am 12.2 10.3 11.7 97 0.3 SW 13 17 7 9 1011.2 1010.7 2.4
24/07:23am 12.0 10.0 11.5 97 0.3 WSW 13 19 7 10 1011.1 1010.6 2.4
24/07:04am 11.8 8.6 11.2 96 0.3 WSW 19 28 10 15 1011.0 1010.5 2.2
24/07:00am 11.8 9.0 11.3 97 0.3 W 17 28 9 15 1011.0 1010.5 2.0
24/06:30am 11.4 10.4 10.9 97 0.3 WNW 7 11 4 6 1010.9 1010.4 2.0
24/06:00am 11.2 9.7 10.7 97 0.3 W 9 11 5 6 1010.8 1010.2 2.0
24/05:55am 11.2 9.7 10.7 97 0.3 W 9 13 5 7 1010.8 1010.2 2.0
24/05:40am 11.1 10.0 10.8 98 0.2 WSW 7 9 4 5 1010.8 1010.2 1.8
24/05:30am 11.1 9.7 10.8 98 0.2 W 9 11 5 6 1010.8 1010.2 1.6
24/05:23am 11.0 9.5 10.7 98 0.2 W 9 15 5 8 1010.8 1010.2 1.6
24/05:03am 11.0 9.9 10.5 97 0.3 W 7 11 4 6 1010.6 1010.0 1.6
24/05:00am 11.0 9.9 10.5 97 0.3 WNW 7 11 4 6 1010.5 1009.9 1.6
24/04:30am 11.3 10.2 10.8 97 0.3 WNW 7 9 4 5 1010.5 1009.9 1.6
24/04:14am 11.1 10.0 10.6 97 0.3 WNW 7 9 4 5 1010.5 1009.9 1.6
24/04:00am 11.4 10.4 10.9 97 0.3 NW 7 9 4 5 1010.6 1010.0 1.6
24/03:30am 11.8 10.2 11.5 98 0.2 WNW 11 15 6 8 1010.7 1010.1 1.6
24/03:26am 11.9 10.7 11.6 98 0.2 WNW 9 15 5 8 1010.7 1010.1 1.6
24/03:00am 11.9 11.1 11.6 98 0.2 N 7 9 4 5 1010.8 1010.2 1.6
24/02:53am 11.8 10.9 11.3 97 0.3 N 7 9 4 5 1010.9 1010.4 1.6
24/02:30am 11.9 11.2 11.4 97 0.3 N 6 7 3 4 1011.0 1010.5 1.6
24/02:23am 11.9 11.0 11.4 97 0.3 N 7 9 4 5 1011.0 1010.5 1.6
24/02:13am 12.0 11.1 11.5 97 0.3 N 7 9 4 5 1011.1 1010.6 1.6
24/02:00am 12.1 10.5 11.6 97 0.3 N 11 15 6 8 1011.3 1010.8 1.6
24/01:30am 12.3 9.3 11.8 97 0.3 N 19 26 10 14 1011.7 1011.1 1.6
24/01:00am 12.6 10.4 12.1 97 0.3 N 15 20 8 11 1012.0 1011.4 1.6
24/12:30am 12.7 11.0 12.4 98 0.2 NNW 13 17 7 9 1012.3 1011.8 1.6
24/12:07am 12.6 10.5 12.3 98 0.2 N 15 20 8 11 1012.6 1012.1 1.6
24/12:00am 12.7 11.0 12.4 98 0.2 N 13 20 7 11 1012.6 1012.1 1.6
 
Date/Time
EST
Temp
°C
App
Temp
°C
Dew
Point
°C
Rel
Hum
%
Delta-T
°C
Wind Press
QNH
hPa
Press
MSL
hPa
Rain since
9am
mm
Dir  Spd
km/h
Gust
km/h
Spd
kts
Gust
kts
23/11:40pm 12.7 10.6 12.4 98 0.2 N 15 20 8 11 1012.8 1012.3 1.6
23/11:32pm 12.8 10.4 12.5 98 0.2 N 17 20 9 11 1012.9 1012.4 1.6
23/11:30pm 12.7 10.2 12.4 98 0.2 N 17 20 9 11 1012.9 1012.4 1.6
23/11:04pm 12.8 10.7 12.5 98 0.2 N 15 19 8 10 1013.3 1012.7 1.6
23/11:00pm 12.7 11.0 12.4 98 0.2 N 13 19 7 10 1013.3 1012.7 1.6
23/10:50pm 12.7 11.0 12.4 98 0.2 N 13 17 7 9 1013.4 1012.8 1.6
23/10:30pm 12.7 10.2 12.4 98 0.2 NNE 17 20 9 11 1013.5 1013.0 1.6
23/10:00pm 12.8 10.0 12.5 98 0.2 NNE 19 22 10 12 1013.7 1013.2 1.6
23/09:30pm 12.8 10.7 12.5 98 0.2 NNE 15 19 8 10 1014.1 1013.6 1.6
23/09:10pm 12.7 10.2 12.4 98 0.2 NNE 17 22 9 12 1014.1 1013.6 1.6
23/09:00pm 12.7 10.6 12.4 98 0.2 NNE 15 19 8 10 1014.2 1013.7 1.6
23/08:58pm 12.6 10.5 12.3 98 0.2 NNE 15 19 8 10 1014.2 1013.7 1.6
23/08:30pm 12.5 9.6 12.2 98 0.2 NE 19 24 10 13 1014.3 1013.8 1.4
23/08:21pm 12.5 9.6 12.2 98 0.2 NNE 19 28 10 15 1014.3 1013.8 1.4
23/08:00pm 12.5 10.0 12.2 98 0.2 NE 17 22 9 12 1014.5 1014.0 1.2
23/07:30pm 12.5 9.4 12.2 98 0.2 NNE 20 28 11 15 1014.5 1014.0 0.6
23/07:00pm 12.3 9.1 12.0 98 0.2 NNE 20 26 11 14 1014.5 1014.0 0.4
23/06:30pm 12.3 10.5 12.0 98 0.2 NNE 13 19 7 10 1014.5 1014.0 0.4
23/06:00pm 12.2 8.6 11.9 98 0.2 NNE 22 26 12 14 1014.4 1013.9 0.2
23/05:41pm 12.2 8.9 11.6 96 0.3 NE 20 26 11 14 1014.3 1013.8 0.2
23/05:38pm 12.2 9.1 11.6 96 0.3 NE 19 26 10 14 1014.3 1013.8 0.2
23/05:30pm 12.2 8.8 11.4 95 0.4 NE 20 28 11 15 1014.3 1013.8 0.2
23/05:00pm 13.1 10.6 12.3 95 0.4 NNE 17 22 9 12 1014.3 1013.8 0.2
23/04:55pm 13.1 10.6 12.3 95 0.4 NNE 17 20 9 11 1014.3 1013.8 0.2
23/04:39pm 13.1 10.6 12.3 95 0.4 NNE 17 20 9 11 1014.3 1013.8 0.2
23/04:30pm 13.0 10.8 12.2 95 0.4 NNE 15 19 8 10 1014.3 1013.8 0.2
23/04:29pm 13.1 11.0 12.3 95 0.4 NNE 15 19 8 10 1014.3 1013.8 0.2
23/04:00pm 13.5 11.1 12.6 94 0.5 NNE 17 20 9 11 1014.4 1013.9 0.2
23/03:52pm 13.6 10.8 12.5 93 0.6 NNE 19 20 10 11 1014.3 1013.8 0.2

Other formats

Comma delimited format used in spreadsheet applications
http://www.bom.gov.au/fwo/IDN60801/IDN60801.94746.axf

JavaScript Object Notation format (JSON) in row-major order
http://www.bom.gov.au/fwo/IDN60801/IDN60801.94746.json

Data quality

Most of these data are generated automatically and are frequently updated. Quality checks on data are not normally performed. It is possible for incorrect values to appear. Refer to information at About Latest Weather Observations and please check the disclaimer before using these data.